Time;durP1;ratioP1;P1;durP2;ratioP2;P2;SDS_P1;SDS_P2;PMS_P1;PMS_P2;Temp;Humidity;BMP_temperature;BMP_pressure;BME280_temperature;BME280_humidity;BME280_pressure;Samples;Min_cycle;Max_cycle;Signal;HPM_P1;HPM_P2
2021/05/29 00:01:28;;;;;;;1.33;0.80;;;21.80;49.20;;;;;;5052189;28;20036;-42
2021/05/29 00:03:53;;;;;;;1.65;0.80;;;21.80;49.20;;;;;;5050263;28;20039;-43
2021/05/29 00:06:20;;;;;;;1.95;0.90;;;21.70;49.20;;;;;;5051056;28;20021;-43
2021/05/29 00:08:46;;;;;;;1.58;0.90;;;21.70;49.10;;;;;;5048324;28;20021;-43
2021/05/29 00:11:12;;;;;;;2.92;0.70;;;21.70;49.10;;;;;;5048587;28;20136;-42
2021/05/29 00:13:38;;;;;;;2.03;0.88;;;21.70;49.10;;;;;;5048294;28;20104;-43
2021/05/29 00:16:05;;;;;;;1.23;0.73;;;21.70;49.10;;;;;;5048993;28;20036;-43
2021/05/29 00:18:31;;;;;;;2.90;0.98;;;21.70;49.10;;;;;;5048853;28;20025;-43
2021/05/29 00:20:57;;;;;;;0.80;0.70;;;21.70;49.10;;;;;;5048162;28;20497;-43
2021/05/29 00:23:23;;;;;;;3.05;0.90;;;21.70;49.10;;;;;;5048990;28;20032;-49
2021/05/29 00:25:49;;;;;;;1.67;1.08;;;21.70;49.10;;;;;;5047716;28;20467;-47
2021/05/29 00:28:15;;;;;;;1.95;0.65;;;21.70;49.10;;;;;;5048849;28;20040;-43
2021/05/29 00:30:43;;;;;;;1.73;0.77;;;21.70;49.10;;;;;;5048131;28;20584;-47
2021/05/29 00:33:09;;;;;;;1.17;0.77;;;21.70;49.00;;;;;;5046563;28;20071;-43
2021/05/29 00:35:36;;;;;;;3.40;0.80;;;21.60;49.00;;;;;;5049409;28;20025;-42
2021/05/29 00:38:03;;;;;;;2.72;0.77;;;21.70;49.00;;;;;;5052493;28;20079;-47
2021/05/29 00:40:29;;;;;;;1.63;0.80;;;21.70;49.00;;;;;;5052236;28;20098;-48
2021/05/29 00:42:54;;;;;;;1.08;0.60;;;21.60;48.90;;;;;;5051600;28;20021;-49
2021/05/29 00:45:20;;;;;;;1.98;0.88;;;21.60;49.00;;;;;;5052062;28;20032;-42
2021/05/29 00:47:46;;;;;;;1.42;0.82;;;21.60;48.90;;;;;;5051340;28;20033;-45
2021/05/29 00:50:13;;;;;;;1.77;1.00;;;21.60;48.80;;;;;;5050917;28;20029;-47
2021/05/29 00:52:40;;;;;;;2.35;1.00;;;21.60;48.80;;;;;;5051076;28;20482;-42
2021/05/29 00:55:11;;;;;;;1.48;0.80;;;21.60;48.80;;;;;;5052410;28;20025;-42
2021/05/29 00:57:42;;;;;;;2.85;0.90;;;21.60;48.80;;;;;;5051048;28;20041;-42
2021/05/29 01:00:09;;;;;;;2.03;1.20;;;21.60;48.80;;;;;;5052262;28;20049;-42
2021/05/29 01:02:35;;;;;;;1.13;0.80;;;21.60;48.80;;;;;;5050905;28;20047;-42
2021/05/29 01:05:01;;;;;;;1.50;0.90;;;21.60;48.80;;;;;;5051756;28;20017;-42
2021/05/29 01:07:26;;;;;;;2.72;1.30;;;21.60;48.80;;;;;;5054084;28;20040;-43
2021/05/29 01:09:52;;;;;;;1.65;1.00;;;21.60;48.70;;;;;;5051144;28;20644;-44
2021/05/29 01:12:18;;;;;;;2.05;0.65;;;21.60;48.80;;;;;;5053195;28;20390;-43
2021/05/29 01:15:18;;;;;;;1.00;0.70;;;21.60;48.70;;;;;;5052964;28;20029;-42
2021/05/29 01:17:36;;;;;;;;;;;21.60;48.70;;;;;;5043744;28;20482;-42
2021/05/29 01:20:04;;;;;;;2.92;0.80;;;21.60;48.70;;;;;;5053459;28;19959;-45
2021/05/29 01:22:48;;;;;;;2.60;0.85;;;21.60;48.70;;;;;;5053702;28;20091;-43
2021/05/29 01:25:20;;;;;;;2.95;0.90;;;21.60;48.80;;;;;;5053773;28;20040;-41
2021/05/29 01:27:53;;;;;;;1.63;0.70;;;21.60;48.70;;;;;;5052092;28;20082;-41
2021/05/29 01:30:19;;;;;;;3.85;1.17;;;21.60;48.70;;;;;;5053009;28;20475;-42
2021/05/29 01:32:45;;;;;;;1.40;0.80;;;21.60;48.70;;;;;;5052458;28;20036;-41
2021/05/29 01:35:11;;;;;;;0.73;0.70;;;21.60;48.70;;;;;;5053257;28;20158;-42
2021/05/29 01:37:39;;;;;;;1.65;0.75;;;21.60;48.70;;;;;;5052583;28;20378;-46
2021/05/29 01:40:06;;;;;;;1.70;0.95;;;21.60;48.70;;;;;;5053225;28;20021;-44
2021/05/29 01:42:33;;;;;;;1.08;0.80;;;21.50;48.70;;;;;;5052907;28;20501;-42
2021/05/29 01:45:01;;;;;;;1.10;0.85;;;21.60;48.70;;;;;;5052810;28;20068;-42
2021/05/29 01:47:27;;;;;;;1.60;0.85;;;21.50;48.70;;;;;;5052867;28;20029;-44
2021/05/29 01:49:52;;;;;;;1.75;0.85;;;21.60;48.70;;;;;;5051833;28;20024;-42
2021/05/29 01:52:18;;;;;;;0.98;0.73;;;21.50;48.70;;;;;;5052889;28;20128;-44
2021/05/29 01:54:44;;;;;;;2.05;1.10;;;21.50;48.70;;;;;;5052298;28;20097;-43
2021/05/29 01:57:09;;;;;;;0.80;0.60;;;21.50;48.70;;;;;;5053056;28;20382;-44
2021/05/29 01:59:35;;;;;;;1.85;0.73;;;21.50;48.70;;;;;;5051906;28;20549;-42
2021/05/29 02:02:01;;;;;;;1.23;0.70;;;21.50;48.80;;;;;;5052872;28;20029;-44
2021/05/29 02:04:26;;;;;;;1.70;0.82;;;21.50;48.70;;;;;;5052595;28;20064;-42
2021/05/29 02:06:52;;;;;;;1.35;0.85;;;21.50;48.80;;;;;;5052678;28;20470;-47
2021/05/29 02:09:18;;;;;;;1.48;1.38;;;21.50;48.80;;;;;;5052387;28;20381;-45
2021/05/29 02:11:44;;;;;;;1.02;0.77;;;21.50;48.70;;;;;;5051873;28;20045;-44
2021/05/29 02:14:09;;;;;;;1.65;0.88;;;21.50;48.80;;;;;;5052633;28;20028;-45
2021/05/29 02:16:35;;;;;;;1.88;0.77;;;21.50;48.80;;;;;;5052236;28;20055;-42
2021/05/29 02:19:00;;;;;;;2.22;0.70;;;21.50;48.80;;;;;;5051951;28;20462;-42
2021/05/29 02:21:26;;;;;;;2.00;0.93;;;21.50;48.80;;;;;;5052360;28;20039;-42
2021/05/29 02:23:52;;;;;;;1.55;0.80;;;21.50;48.70;;;;;;5051480;28;20033;-44
2021/05/29 02:26:21;;;;;;;1.10;0.70;;;21.50;48.70;;;;;;5052361;28;20049;-42
2021/05/29 02:28:50;;;;;;;1.38;0.90;;;21.50;48.70;;;;;;5051421;28;20107;-42
2021/05/29 02:31:16;;;;;;;1.52;0.88;;;21.50;48.80;;;;;;5044132;28;20041;-42
2021/05/29 02:33:42;;;;;;;1.88;0.82;;;21.50;48.80;;;;;;5051258;28;20021;-42
2021/05/29 02:36:09;;;;;;;1.67;0.90;;;21.50;48.70;;;;;;5051910;28;20029;-44
2021/05/29 02:38:36;;;;;;;1.92;1.05;;;21.50;48.80;;;;;;5051754;28;20056;-42
2021/05/29 02:41:08;;;;;;;2.20;0.88;;;21.50;48.80;;;;;;5051725;28;20047;-45
2021/05/29 02:43:34;;;;;;;;;;;21.50;48.80;;;;;;5050941;28;20033;-42
2021/05/29 02:46:00;;;;;;;1.02;0.85;;;21.50;48.90;;;;;;5051514;28;19915;-42
2021/05/29 02:48:26;;;;;;;0.80;0.80;;;21.50;48.80;;;;;;5051831;28;20029;-45
2021/05/29 02:50:51;;;;;;;2.47;0.90;;;21.50;48.80;;;;;;5050797;28;20055;-42
2021/05/29 02:53:18;;;;;;;1.55;1.13;;;21.50;48.80;;;;;;5051834;28;20035;-42
2021/05/29 02:55:44;;;;;;;1.92;0.95;;;21.50;48.80;;;;;;5051125;28;20033;-42
2021/05/29 02:58:11;;;;;;;1.65;0.90;;;21.50;48.80;;;;;;5051105;28;20504;-41
2021/05/29 03:00:46;;;;;;;1.02;0.70;;;21.50;48.80;;;;;;5051111;28;20067;-43
2021/05/29 03:03:12;;;;;;;1.42;0.90;;;21.50;49.40;;;;;;5051813;28;20021;-44
2021/05/29 03:05:40;;;;;;;1.08;0.77;;;21.50;48.80;;;;;;5033096;28;20387;-41
2021/05/29 03:08:06;;;;;;;2.55;1.00;;;21.50;48.90;;;;;;5053772;28;20025;-44
2021/05/29 03:10:32;;;;;;;1.40;0.70;;;21.50;48.80;;;;;;5050350;28;20048;-45
2021/05/29 03:12:58;;;;;;;1.38;0.93;;;21.50;48.80;;;;;;5050883;28;20036;-45
2021/05/29 03:15:25;;;;;;;1.05;0.70;;;21.50;48.80;;;;;;5051588;28;20025;-42
2021/05/29 03:17:51;;;;;;;1.05;0.88;;;21.50;48.80;;;;;;5050585;28;20032;-42
2021/05/29 03:20:20;;;;;;;1.13;0.90;;;21.50;48.80;;;;;;5051527;28;20029;-45
2021/05/29 03:22:47;;;;;;;1.58;0.80;;;21.50;48.90;;;;;;5050768;28;20025;-45
2021/05/29 03:25:15;;;;;;;1.40;0.88;;;21.50;48.80;;;;;;5051432;28;20021;-47
2021/05/29 03:27:41;;;;;;;3.05;0.98;;;21.50;48.80;;;;;;5050645;28;20527;-45
2021/05/29 03:30:15;;;;;;;1.73;1.00;;;21.50;48.80;;;;;;5033298;28;20029;-43
2021/05/29 03:32:42;;;;;;;1.08;0.70;;;21.50;48.70;;;;;;5050782;28;20116;-46
2021/05/29 03:35:09;;;;;;;1.50;0.90;;;21.50;48.70;;;;;;5051283;28;20036;-44
2021/05/29 03:37:35;;;;;;;1.25;0.70;;;21.40;48.70;;;;;;5051053;28;20052;-45
2021/05/29 03:40:05;;;;;;;2.13;0.98;;;21.50;48.80;;;;;;5050202;28;20032;-42
2021/05/29 03:42:31;;;;;;;1.20;0.80;;;21.50;48.70;;;;;;5051172;28;20040;-44
2021/05/29 03:44:59;;;;;;;1.63;0.90;;;21.50;48.80;;;;;;5050180;28;20025;-45
2021/05/29 03:47:25;;;;;;;2.28;0.82;;;21.50;48.70;;;;;;5051374;28;20028;-47
2021/05/29 03:49:51;;;;;;;2.28;0.85;;;21.40;48.60;;;;;;5050366;28;20037;-43
2021/05/29 03:52:17;;;;;;;2.80;0.85;;;21.40;48.70;;;;;;5051137;28;20416;-42
2021/05/29 03:54:43;;;;;;;1.13;0.80;;;21.50;48.70;;;;;;5050800;28;20025;-42
2021/05/29 03:57:08;;;;;;;1.75;0.95;;;21.50;48.70;;;;;;5050702;28;20127;-42
2021/05/29 03:59:34;;;;;;;1.42;0.80;;;21.50;48.70;;;;;;5051284;28;20454;-41
2021/05/29 04:02:00;;;;;;;1.35;1.15;;;21.50;48.80;;;;;;5050415;28;20613;-44
2021/05/29 04:04:25;;;;;;;1.33;0.77;;;21.50;48.80;;;;;;5051028;28;20029;-46
2021/05/29 04:06:51;;;;;;;1.88;0.85;;;21.40;48.70;;;;;;5057068;28;20370;-45
2021/05/29 04:09:17;;;;;;;1.42;1.33;;;21.40;48.70;;;;;;5052671;28;20394;-47
2021/05/29 04:11:42;;;;;;;1.70;1.00;;;21.50;48.70;;;;;;5053272;28;20033;-43
2021/05/29 04:14:08;;;;;;;1.92;0.80;;;21.40;48.70;;;;;;5054751;28;20024;-42
2021/05/29 04:16:34;;;;;;;2.28;0.93;;;21.40;48.70;;;;;;5054625;28;20037;-46
2021/05/29 04:18:59;;;;;;;0.98;0.88;;;21.50;48.70;;;;;;5054123;28;20207;-43
2021/05/29 04:21:26;;;;;;;2.35;0.90;;;21.40;48.70;;;;;;5054637;28;20033;-44
2021/05/29 04:23:52;;;;;;;1.38;0.80;;;21.40;48.70;;;;;;5053778;28;20021;-43
2021/05/29 04:26:18;;;;;;;1.25;0.80;;;21.50;48.80;;;;;;5054688;28;20374;-43
2021/05/29 04:28:44;;;;;;;1.88;0.80;;;21.50;48.80;;;;;;5053171;28;20112;-41
2021/05/29 04:31:10;;;;;;;2.17;0.82;;;21.40;48.80;;;;;;5054615;28;20484;-45
2021/05/29 04:33:38;;;;;;;2.15;0.98;;;21.40;48.70;;;;;;5054488;28;20032;-46
2021/05/29 04:36:07;;;;;;;1.10;0.95;;;21.50;48.80;;;;;;5053674;28;20021;-45
2021/05/29 04:38:32;;;;;;;1.55;0.88;;;21.40;48.80;;;;;;5054332;28;20130;-44
2021/05/29 04:40:58;;;;;;;1.92;0.90;;;21.40;48.70;;;;;;5053340;28;20470;-46
2021/05/29 04:43:24;;;;;;;0.98;0.77;;;21.50;48.80;;;;;;5054560;28;20455;-44
2021/05/29 04:45:49;;;;;;;0.85;0.70;;;21.40;48.70;;;;;;5053866;28;20100;-44
2021/05/29 04:48:17;;;;;;;0.85;0.70;;;21.40;48.70;;;;;;5054152;28;20115;-42
2021/05/29 04:53:27;;;;;;;1.88;1.05;;;21.40;48.70;;;;;;5053994;28;20105;-45
2021/05/29 04:55:53;;;;;;;1.95;0.70;;;21.40;48.70;;;;;;5053151;28;20505;-45
2021/05/29 04:58:20;;;;;;;1.00;0.82;;;21.50;48.80;;;;;;5053928;28;20045;-45
2021/05/29 05:00:46;;;;;;;1.33;0.82;;;21.40;48.70;;;;;;5052922;28;20029;-43
2021/05/29 05:03:11;;;;;;;2.13;0.80;;;21.40;48.70;;;;;;5052984;28;20036;-43
2021/05/29 05:05:37;;;;;;;1.00;0.80;;;21.40;48.70;;;;;;5054396;28;20409;-42
2021/05/29 05:08:03;;;;;;;1.00;0.90;;;21.40;48.70;;;;;;5069894;28;20032;-42
2021/05/29 05:10:29;;;;;;;2.15;0.85;;;21.40;48.70;;;;;;5072631;28;20028;-42
2021/05/29 05:12:54;;;;;;;1.38;0.65;;;21.40;48.80;;;;;;5053448;28;20029;-44
2021/05/29 05:15:21;;;;;;;0.95;0.80;;;21.40;48.70;;;;;;5053733;28;20479;-42
2021/05/29 05:17:46;;;;;;;2.67;1.10;;;21.40;48.70;;;;;;5052636;28;20112;-44
2021/05/29 05:20:13;;;;;;;0.75;0.75;;;21.40;48.80;;;;;;5053387;28;20445;-45
2021/05/29 05:22:39;;;;;;;1.23;0.82;;;21.40;48.70;;;;;;5052581;28;20029;-47
2021/05/29 05:25:06;;;;;;;1.48;0.80;;;21.40;49.40;;;;;;5052625;28;20024;-46
2021/05/29 05:27:33;;;;;;;2.13;1.02;;;21.40;48.80;;;;;;5045217;28;20398;-43
2021/05/29 05:29:59;;;;;;;1.23;0.82;;;21.40;48.70;;;;;;5052626;28;20025;-42
2021/05/29 05:32:25;;;;;;;3.05;0.90;;;21.40;48.70;;;;;;5053984;28;20043;-44
2021/05/29 05:34:51;;;;;;;1.10;0.90;;;21.40;48.70;;;;;;5053111;28;20398;-44
2021/05/29 05:37:16;;;;;;;1.00;0.80;;;21.40;48.80;;;;;;5053382;28;20024;-42
2021/05/29 05:39:42;;;;;;;1.52;1.10;;;21.40;48.80;;;;;;5052661;28;20064;-43
2021/05/29 05:42:08;;;;;;;1.90;0.98;;;21.40;48.80;;;;;;5052825;28;20158;-45
2021/05/29 05:44:34;;;;;;;1.23;0.80;;;21.40;48.80;;;;;;5053201;28;20106;-46
2021/05/29 05:47:00;;;;;;;2.72;1.02;;;21.40;48.80;;;;;;5052407;28;20096;-42
2021/05/29 05:49:27;;;;;;;1.42;0.75;;;21.40;48.70;;;;;;5053143;28;20493;-48
2021/05/29 05:51:52;;;;;;;1.10;0.70;;;21.40;48.80;;;;;;5052308;28;20104;-48
2021/05/29 05:54:18;;;;;;;2.03;1.10;;;21.40;48.80;;;;;;5052656;28;20108;-43
2021/05/29 05:56:44;;;;;;;2.30;0.88;;;21.40;48.80;;;;;;5052317;28;20103;-41
2021/05/29 05:59:09;;;;;;;2.28;1.15;;;21.40;48.80;;;;;;5052373;28;20485;-43
2021/05/29 06:01:35;;;;;;;1.77;0.88;;;21.40;48.80;;;;;;5052628;28;20523;-42
2021/05/29 06:04:01;;;;;;;1.45;0.85;;;21.40;48.80;;;;;;5051982;28;20147;-46
2021/05/29 06:06:27;;;;;;;1.73;1.05;;;21.40;48.80;;;;;;5055942;28;20107;-45
2021/05/29 06:08:53;;;;;;;2.88;0.90;;;21.40;48.80;;;;;;5053348;28;20108;-42
2021/05/29 06:11:20;;;;;;;2.40;1.10;;;21.40;48.80;;;;;;5052089;28;20043;-47
2021/05/29 06:21:22;;;;;;;2.22;1.02;;;21.40;48.70;;;;;;5062343;28;20112;-44
2021/05/29 06:23:47;;;;;;;1.73;1.00;;;21.40;48.80;;;;;;5051809;28;20383;-44
2021/05/29 06:26:13;;;;;;;2.10;1.20;;;21.40;48.80;;;;;;5059124;28;20473;-43
2021/05/29 06:28:39;;;;;;;7.50;1.20;;;21.40;48.90;;;;;;5062125;28;20082;-42
2021/05/29 06:31:04;;;;;;;3.03;1.15;;;21.50;50.20;;;;;;5059868;28;20058;-45
2021/05/29 06:33:31;;;;;;;1.30;0.85;;;21.50;50.50;;;;;;5062680;28;20033;-49
2021/05/29 06:35:57;;;;;;;1.42;1.00;;;21.50;50.10;;;;;;5063512;28;20040;-43
2021/05/29 06:38:22;;;;;;;2.33;1.10;;;21.60;49.60;;;;;;5061201;28;20029;-43
2021/05/29 06:40:48;;;;;;;4.43;1.17;;;21.60;50.00;;;;;;5057950;28;20390;-45
2021/05/29 06:43:14;;;;;;;2.13;1.15;;;21.60;49.80;;;;;;5060215;28;20029;-48
2021/05/29 06:45:39;;;;;;;2.63;1.17;;;21.60;50.20;;;;;;5060710;28;20021;-43
2021/05/29 06:48:08;;;;;;;2.75;1.02;;;21.70;50.30;;;;;;5058340;28;20017;-43
2021/05/29 06:50:34;;;;;;;3.03;0.82;;;21.70;50.40;;;;;;5063072;28;20150;-43
2021/05/29 06:53:01;;;;;;;4.40;1.08;;;21.70;50.70;;;;;;5059429;28;20025;-45
2021/05/29 07:00:56;;;;;;;5.97;1.02;;;21.70;50.70;;;;;;5055355;28;20054;-42
2021/05/29 07:03:21;;;;;;;8.73;1.63;;;21.70;50.70;;;;;;5042521;28;20474;-43
2021/05/29 07:05:47;;;;;;;3.53;1.25;;;21.70;50.80;;;;;;5059516;28;20037;-46
2021/05/29 07:08:13;;;;;;;8.85;2.15;;;21.70;50.70;;;;;;5060112;28;20033;-44
2021/05/29 07:10:38;;;;;;;10.00;1.60;;;21.80;50.70;;;;;;5057691;28;20051;-44
2021/05/29 07:13:04;;;;;;;4.90;1.73;;;21.80;50.70;;;;;;5058464;28;20036;-42
2021/05/29 07:15:37;;;;;;;5.20;1.33;;;21.80;50.60;;;;;;5057175;28;20518;-42
2021/05/29 07:18:08;;;;;;;3.55;1.00;;;21.80;50.50;;;;;;5058288;28;20646;-43
2021/05/29 07:20:34;;;;;;;6.27;1.53;;;21.80;50.50;;;;;;5061379;28;20025;-47
2021/05/29 07:23:00;;;;;;;5.65;1.08;;;21.80;50.60;;;;;;5061684;28;20394;-46
2021/05/29 07:25:26;;;;;;;5.13;1.48;;;21.90;50.40;;;;;;5062045;28;20028;-45
2021/05/29 07:27:52;;;;;;;5.70;1.20;;;21.80;50.60;;;;;;5052803;28;20031;-46
2021/05/29 07:30:18;;;;;;;4.03;1.50;;;21.80;50.60;;;;;;5058375;28;20040;-42
2021/05/29 07:32:44;;;;;;;3.63;1.38;;;21.90;50.60;;;;;;5059408;28;20070;-44
2021/05/29 07:35:10;;;;;;;3.47;1.17;;;21.90;50.60;;;;;;5059844;28;20433;-45
2021/05/29 07:37:36;;;;;;;1.77;1.15;;;21.80;50.80;;;;;;5061948;28;20377;-46
2021/05/29 07:40:05;;;;;;;2.33;1.30;;;21.70;43.80;;;;;;5059881;28;20094;-45
2021/05/29 07:42:31;;;;;;;2.30;1.20;;;21.40;42.30;;;;;;5056938;28;20152;-43
2021/05/29 07:44:56;;;;;;;1.70;1.30;;;21.20;41.20;;;;;;5057872;28;20117;-45
2021/05/29 07:47:22;;;;;;;1.00;0.90;;;21.00;41.80;;;;;;5062947;28;20029;-43
2021/05/29 07:49:48;;;;;;;2.10;1.20;;;20.80;42.20;;;;;;5063521;28;20386;-45
2021/05/29 07:52:14;;;;;;;3.05;1.10;;;20.80;41.30;;;;;;5062846;28;20040;-46
2021/05/29 07:54:39;;;;;;;1.40;1.00;;;20.90;41.90;;;;;;5045839;28;20115;-43
2021/05/29 07:57:09;;;;;;;0.98;0.70;;;20.80;40.90;;;;;;5061554;28;20318;-42
2021/05/29 07:59:39;;;;;;;3.17;1.25;;;20.90;40.80;;;;;;5060452;28;20482;-43
2021/05/29 08:02:05;;;;;;;4.03;1.00;;;20.90;40.10;;;;;;5061353;28;20610;-45
2021/05/29 08:04:32;;;;;;;5.35;1.00;;;20.80;40.20;;;;;;5059340;28;20036;-43
2021/05/29 08:06:58;;;;;;;1.85;1.10;;;20.80;40.50;;;;;;5063370;28;20066;-42
2021/05/29 08:09:24;;;;;;;2.35;1.15;;;20.90;40.50;;;;;;5063151;28;20025;-42
2021/05/29 08:11:50;;;;;;;1.00;0.77;;;21.10;39.90;;;;;;5059818;28;20393;-45
2021/05/29 08:14:16;;;;;;;1.00;0.85;;;21.20;40.00;;;;;;5063495;28;20175;-46
2021/05/29 08:16:43;;;;;;;3.25;1.33;;;21.20;40.00;;;;;;5062533;28;20036;-46
2021/05/29 08:19:11;;;;;;;2.83;1.10;;;21.20;38.80;;;;;;5060908;28;20090;-43
2021/05/29 08:21:38;;;;;;;1.50;0.85;;;21.20;39.40;;;;;;5062324;28;20033;-47
2021/05/29 08:24:04;;;;;;;1.10;0.77;;;21.20;39.00;;;;;;5061930;28;20035;-44
2021/05/29 08:26:30;;;;;;;2.95;2.17;;;21.30;39.20;;;;;;5065006;28;20386;-45
2021/05/29 08:28:56;;;;;;;1.95;1.05;;;21.20;38.90;;;;;;5063616;28;20029;-48
2021/05/29 08:31:21;;;;;;;3.00;0.90;;;21.30;39.50;;;;;;5061532;28;20108;-45
2021/05/29 08:33:47;;;;;;;1.27;0.80;;;21.30;38.90;;;;;;5062785;28;20039;-43
2021/05/29 08:36:13;;;;;;;2.67;1.23;;;21.20;39.20;;;;;;5061147;28;20072;-44
2021/05/29 08:38:39;;;;;;;1.45;0.90;;;21.20;38.40;;;;;;5062705;28;20029;-44
2021/05/29 08:41:05;;;;;;;2.85;1.00;;;21.20;38.00;;;;;;5061904;28;20496;-47
2021/05/29 08:43:32;;;;;;;1.10;1.00;;;21.10;38.80;;;;;;5061644;28;20029;-42
2021/05/29 08:45:58;;;;;;;2.13;1.00;;;21.20;39.20;;;;;;5062657;28;20060;-43
2021/05/29 08:48:23;;;;;;;2.67;0.90;;;21.20;39.00;;;;;;5062560;28;20064;-43
2021/05/29 08:53:33;;;;;;;2.10;0.80;;;21.20;39.70;;;;;;5061697;28;20082;-42
2021/05/29 08:55:59;;;;;;;1.38;1.10;;;21.20;39.60;;;;;;5053561;28;20033;-46
2021/05/29 08:58:26;;;;;;;1.88;1.00;;;21.10;40.10;;;;;;5052873;28;20057;-42
2021/05/29 09:00:52;;;;;;;1.73;0.95;;;21.20;39.10;;;;;;5044371;28;20025;-44
2021/05/29 09:03:18;;;;;;;2.60;1.13;;;21.30;42.30;;;;;;5054034;28;20025;-42
2021/05/29 09:05:53;;;;;;;3.35;1.02;;;21.20;38.50;;;;;;5053709;28;20100;-45
2021/05/29 09:08:21;;;;;;;1.98;1.10;;;21.20;40.00;;;;;;5061194;28;20033;-46
2021/05/29 09:10:50;;;;;;;2.70;0.95;;;21.10;38.60;;;;;;5051088;28;20114;-44
2021/05/29 09:13:21;;;;;;;2.33;0.80;;;21.20;38.80;;;;;;5053264;28;20052;-43
2021/05/29 09:16:05;;;;;;;4.63;1.05;;;21.20;38.20;;;;;;5052671;28;20074;-44
2021/05/29 09:18:38;;;;;;;3.58;1.35;;;21.00;39.30;;;;;;5044379;28;21441;-45
2021/05/29 09:21:31;;;;;;;2.97;0.98;;;21.00;40.20;;;;;;5049879;28;20029;-46
2021/05/29 09:23:58;;;;;;;1.98;1.15;;;21.10;40.70;;;;;;5052193;28;20029;-42
2021/05/29 09:26:54;;;;;;;5.75;2.35;;;21.10;40.60;;;;;;5045146;28;20032;-47
2021/05/29 09:29:20;;;;;;;2.85;1.67;;;21.20;40.70;;;;;;5052354;28;20433;-47
2021/05/29 09:32:07;;;;;;;4.72;1.65;;;21.20;40.90;;;;;;5052411;28;20032;-44
2021/05/29 09:34:54;;;;;;;2.47;1.30;;;21.20;40.10;;;;;;5052731;28;20033;-48
2021/05/29 09:37:23;;;;;;;1.20;1.10;;;21.20;39.20;;;;;;5048264;28;20020;-43
2021/05/29 09:39:54;;;;;;;6.13;1.48;;;21.10;39.10;;;;;;5052587;28;20394;-46
2021/05/29 09:42:25;;;;;;;9.30;1.40;;;21.10;39.40;;;;;;5052773;28;20052;-43
2021/05/29 09:44:51;;;;;;;1.83;1.05;;;21.10;39.90;;;;;;5051717;28;20066;-42
2021/05/29 09:47:18;;;;;;;2.35;0.90;;;21.40;40.60;;;;;;5052775;28;20064;-45
2021/05/29 09:49:55;;;;;;;1.75;1.02;;;21.30;40.80;;;;;;5043337;28;20104;-43
2021/05/29 09:52:36;;;;;;;1.50;0.90;;;21.40;39.50;;;;;;5052461;28;20484;-44
2021/05/29 09:55:10;;;;;;;1.75;1.00;;;21.40;39.60;;;;;;5044035;28;20396;-45
2021/05/29 09:57:52;;;;;;;2.05;1.13;;;21.50;39.60;;;;;;5052080;28;20045;-45
2021/05/29 10:00:19;;;;;;;2.28;1.20;;;21.60;39.60;;;;;;5052579;28;20040;-42
2021/05/29 10:03:01;;;;;;;2.05;1.38;;;21.60;39.90;;;;;;5034456;28;20374;-45
2021/05/29 10:05:35;;;;;;;2.38;1.15;;;21.50;39.60;;;;;;5034257;28;20371;-43
2021/05/29 10:08:01;;;;;;;3.88;1.20;;;21.50;40.20;;;;;;5051643;28;20343;-43
2021/05/29 10:10:27;;;;;;;3.92;0.85;;;21.40;39.20;;;;;;5051669;28;20040;-44
2021/05/29 10:12:53;;;;;;;2.15;1.02;;;21.50;39.90;;;;;;5051009;28;20025;-45
2021/05/29 10:15:19;;;;;;;4.47;0.93;;;21.60;40.70;;;;;;5051813;28;20047;-46
2021/05/29 10:17:46;;;;;;;2.65;1.00;;;21.60;41.30;;;;;;5033369;28;20028;-44
2021/05/29 10:20:13;;;;;;;3.60;1.23;;;21.60;41.50;;;;;;5052084;28;20029;-47
2021/05/29 10:22:39;;;;;;;3.03;1.15;;;21.50;40.70;;;;;;5052166;28;20382;-47
2021/05/29 10:25:16;;;;;;;3.50;1.10;;;21.50;39.80;;;;;;5051327;28;20033;-45
2021/05/29 10:27:53;;;;;;;3.33;1.20;;;21.50;41.40;;;;;;5051851;28;20108;-44
2021/05/29 10:30:25;;;;;;;4.22;1.30;;;21.50;41.60;;;;;;5045399;28;20112;-43
2021/05/29 10:33:16;;;;;;;3.13;1.17;;;21.50;42.10;;;;;;5051369;28;20036;-42
2021/05/29 10:35:43;;;;;;;1.65;1.02;;;21.60;42.70;;;;;;5052414;28;20037;-43
2021/05/29 10:38:09;;;;;;;3.90;1.15;;;21.70;42.30;;;;;;5051561;28;20044;-43
2021/05/29 10:40:47;;;;;;;2.33;1.10;;;21.70;42.20;;;;;;5043749;28;20037;-43
2021/05/29 10:43:20;;;;;;;2.03;1.13;;;21.70;42.50;;;;;;5051878;28;20033;-42
2021/05/29 10:45:52;;;;;;;1.67;1.17;;;21.70;42.50;;;;;;5051420;28;20067;-44
2021/05/29 10:48:22;;;;;;;1.42;0.80;;;21.70;42.60;;;;;;5051941;28;20040;-44
2021/05/29 10:53:45;;;;;;;1.90;1.20;;;21.70;42.80;;;;;;5026182;28;20028;-46
2021/05/29 10:56:23;;;;;;;1.58;1.10;;;21.80;42.80;;;;;;5051179;28;20528;-44
2021/05/29 10:59:14;;;;;;;2.00;0.80;;;21.70;43.00;;;;;;5049792;28;20053;-44
2021/05/29 11:01:42;;;;;;;3.08;1.00;;;21.70;42.90;;;;;;5051686;28;20087;-44
2021/05/29 11:04:17;;;;;;;2.78;1.10;;;21.80;43.30;;;;;;5033060;28;20025;-43
2021/05/29 11:06:47;;;;;;;4.55;1.05;;;21.80;43.10;;;;;;5045360;28;20017;-42
2021/05/29 11:09:14;;;;;;;3.90;1.02;;;21.80;43.30;;;;;;5051550;28;20064;-42
2021/05/29 11:14:18;;;;;;;1.20;0.90;;;21.80;43.10;;;;;;5050791;28;20104;-43
2021/05/29 11:16:50;;;;;;;1.75;1.10;;;21.80;43.20;;;;;;5051484;28;20367;-45
2021/05/29 11:19:29;;;;;;;;;;;21.80;43.30;;;;;;5050294;28;20478;-47
2021/05/29 11:21:58;;;;;;;2.15;1.23;;;21.80;43.30;;;;;;5050325;28;19908;-45
2021/05/29 11:24:24;;;;;;;1.65;0.73;;;21.80;43.30;;;;;;5052188;28;20025;-48
2021/05/29 11:26:50;;;;;;;3.97;0.80;;;21.80;43.30;;;;;;5051124;28;20385;-43
2021/05/29 11:29:27;;;;;;;1.95;1.00;;;21.80;43.40;;;;;;5050745;28;20082;-45
2021/05/29 11:31:53;;;;;;;3.22;0.98;;;21.80;43.70;;;;;;5049609;28;20044;-43
2021/05/29 11:34:20;;;;;;;3.50;1.05;;;21.80;43.60;;;;;;5051222;28;20029;-46
2021/05/29 11:36:46;;;;;;;1.55;0.90;;;21.90;43.70;;;;;;5050624;28;20048;-45
2021/05/29 11:39:14;;;;;;;5.07;1.63;;;21.90;43.70;;;;;;5050694;28;20053;-43
2021/05/29 11:41:43;;;;;;;2.22;0.90;;;21.90;43.80;;;;;;5051290;28;20470;-48
2021/05/29 11:44:22;;;;;;;2.10;0.80;;;22.00;43.70;;;;;;5050326;28;20059;-46
2021/05/29 11:46:49;;;;;;;1.00;0.70;;;21.90;38.90;;;;;;5050290;28;20462;-42
2021/05/29 11:49:14;;;;;;;0.63;0.55;;;21.90;39.90;;;;;;5050315;28;20520;-42
2021/05/29 11:51:44;;;;;;;1.77;0.70;;;21.90;37.20;;;;;;5050570;28;20065;-44
2021/05/29 11:54:40;;;;;;;1.85;0.70;;;21.90;37.30;;;;;;5050722;28;20025;-45
2021/05/29 11:57:06;;;;;;;0.70;0.70;;;22.00;37.50;;;;;;5049842;28;20040;-42
2021/05/29 11:59:32;;;;;;;4.10;0.88;;;21.90;36.40;;;;;;5051143;28;20036;-48
2021/05/29 12:01:58;;;;;;;0.52;0.52;;;21.90;37.30;;;;;;5050010;28;20025;-45
2021/05/29 12:04:30;;;;;;;0.75;0.50;;;21.90;35.90;;;;;;5050867;28;20051;-44
2021/05/29 12:06:59;;;;;;;;;;;21.80;36.90;;;;;;5050325;28;20025;-44
2021/05/29 12:09:30;;;;;;;0.68;0.60;;;21.90;39.00;;;;;;5050974;28;19909;-41
2021/05/29 12:11:55;;;;;;;0.60;0.50;;;21.90;36.50;;;;;;5050170;28;20041;-43
2021/05/29 12:14:21;;;;;;;3.50;0.65;;;21.90;37.10;;;;;;5051013;28;20187;-44
2021/05/29 12:17:04;;;;;;;2.03;0.60;;;21.90;36.00;;;;;;5050178;28;20047;-46
2021/05/29 12:19:30;;;;;;;1.55;0.70;;;21.90;35.00;;;;;;5043917;28;20037;-45
2021/05/29 12:22:14;;;;;;;1.33;0.80;;;22.00;34.50;;;;;;5049714;28;20479;-48
2021/05/29 12:24:41;;;;;;;1.55;0.50;;;22.00;35.20;;;;;;5044129;28;20032;-47
2021/05/29 12:27:11;;;;;;;1.00;0.70;;;21.90;34.90;;;;;;5049811;28;20021;-47
2021/05/29 12:29:37;;;;;;;2.67;0.50;;;21.90;35.20;;;;;;5050754;28;20039;-45
2021/05/29 12:32:03;;;;;;;0.82;0.47;;;21.90;34.90;;;;;;5051923;28;20037;-43
2021/05/29 12:34:30;;;;;;;1.35;0.60;;;22.00;35.10;;;;;;5054472;28;20037;-48
2021/05/29 12:37:07;;;;;;;1.77;0.70;;;22.00;34.20;;;;;;5053437;28;20029;-44
2021/05/29 12:39:48;;;;;;;1.40;0.60;;;22.00;34.30;;;;;;5046637;28;20037;-44
2021/05/29 12:42:25;;;;;;;2.15;0.60;;;22.10;35.00;;;;;;5054069;28;20079;-49
2021/05/29 12:44:53;;;;;;;2.13;0.70;;;22.10;36.00;;;;;;5053516;28;20113;-46
2021/05/29 12:47:24;;;;;;;3.75;0.57;;;22.20;36.10;;;;;;5054346;28;20036;-47
2021/05/29 12:49:50;;;;;;;0.98;0.70;;;22.20;36.70;;;;;;5053027;28;20037;-45
2021/05/29 12:52:33;;;;;;;0.70;0.50;;;22.20;37.10;;;;;;5053932;28;20486;-46
2021/05/29 12:55:00;;;;;;;2.45;0.60;;;22.30;36.70;;;;;;5051750;28;20382;-46
2021/05/29 12:57:42;;;;;;;1.40;0.50;;;22.30;37.00;;;;;;5053982;28;20056;-44
2021/05/29 13:00:15;;;;;;;1.00;0.50;;;22.20;35.60;;;;;;5053344;28;20108;-45
2021/05/29 13:07:23;;;;;;;0.90;0.45;;;22.20;34.40;;;;;;5053881;28;20041;-44
2021/05/29 13:09:16;;;;;;;3.70;0.50;;;22.20;35.80;;;;;;5057692;28;20105;-42
2021/05/29 13:11:29;;;;;;;;;;;22.20;33.70;;;;;;5042658;28;20064;-43
2021/05/29 13:14:10;;;;;;;0.98;0.50;;;22.10;34.20;;;;;;5052759;28;19904;-45
2021/05/29 13:16:54;;;;;;;3.60;0.60;;;22.10;34.20;;;;;;5059992;28;20107;-42
2021/05/29 13:19:26;;;;;;;0.80;0.45;;;22.10;33.50;;;;;;5053631;28;20033;-42
2021/05/29 13:21:58;;;;;;;1.02;0.70;;;22.10;34.20;;;;;;5052568;28;20107;-47